Flight Track Log - Related Links

Times and Time Zones

All times are in EDT time to prevent confusion due to time zone crossing. See the CTL309 flight status page for this flight to view local times or setup timezone preferences in your user account.

Time Position Orientation Groundspeed Altitude Reporting Facility
EDT Latitude Longitude Course Direction KTS MPH feet Rate Location/Type
Mon 09:54:25 PM 41.5336 -81.6761 352° North 107 123 1,300  Level Cleveland Center
Mon 09:55:14 PM 41.5669 -81.6822 352° North 144 166 2,200 1,266 Climbing Cleveland Center
Mon 09:56:14 PM 41.5506 -81.6542 128° Southeast 130 150 3,600 1,091 Climbing Cleveland Center
Mon 09:57:15 PM 41.5153 -81.6314 154° Southeast 151 174 4,400 893 Climbing Cleveland Center
Mon 09:58:15 PM 41.4761 -81.6003 149° Southeast 160 184 5,400 843 Climbing Cleveland Center
Mon 09:59:16 PM 41.4344 -81.5967 176° South 163 188 6,100 295 Climbing Cleveland Center
Mon 10:00:17 PM 41.3903 -81.6294 209° Southwest 179 206 6,000 -50 Descending Cleveland Center
Mon 10:01:17 PM 41.3522 -81.6731 221° Southwest 180 207 6,000 50 Level Cleveland Center
Mon 10:02:18 PM 41.3164 -81.7194 224° Southwest 181 208 6,100 49 Climbing Cleveland Center
Mon 10:03:19 PM 41.2783 -81.7628 221° Southwest 182 209 6,100 -47 Level Cleveland Center
Mon 10:04:25 PM 41.2364 -81.8119 221° Southwest 179 206 6,000  Descending Cleveland Center
Mon 10:05:20 PM 41.2025 -81.8525 222° Southwest 183 211 6,100 50 Climbing Cleveland Center
Mon 10:06:26 PM 41.1622 -81.8986 221° Southwest 181 208 6,100  Level Cleveland Center
Mon 10:07:21 PM 41.1244 -81.9339 215° Southwest 182 209 6,100 -55 Level Cleveland Center
Mon 10:08:16 PM 41.0883 -81.9772 222° Southwest 178 205 6,000 -18 Descending Cleveland Center
Mon 10:10:00 PM 41.0408 -82.0597 233° Southwest  Level FlightAware Approximate
Mon 10:12:46 PM 40.9256 -82.1558 216° Southwest 176 203 6,000  Level Indianapolis Center
Mon 10:13:47 PM 40.8867 -82.1983 220° Southwest 178 205 6,000 49 Level Indianapolis Center
Mon 10:14:48 PM 40.8469 -82.2428 220° Southwest 183 211 6,100  Climbing Indianapolis Center
Mon 10:15:50 PM 40.8086 -82.2853 220° Southwest 180 207 6,000 -98 Descending Indianapolis Center
Mon 10:16:51 PM 40.7617 -82.3350 219° Southwest 182 209 5,900 -49 Descending Indianapolis Center
Mon 10:17:00 PM 40.8080 -82.3547 216° Southwest  Level FlightAware Approximate
Mon 10:17:52 PM 40.7233 -82.3772 220° Southwest 180 207 5,900  Level Indianapolis Center
Mon 10:18:00 PM 40.7715 -82.3900 216° Southwest  Level FlightAware Approximate
Mon 10:18:53 PM 40.6833 -82.4181 218° Southwest 180 207 5,900  Level Indianapolis Center
Mon 10:19:54 PM 40.6444 -82.4597 219° Southwest 179 206 5,900  Level Indianapolis Center
Mon 10:20:55 PM 40.6067 -82.5014 220° Southwest 176 203 5,900  Level Indianapolis Center
Mon 10:21:57 PM 40.5683 -82.5439 220° Southwest 177 204 5,900  Level Indianapolis Center
Mon 10:22:58 PM 40.5292 -82.5850 219° Southwest 178 205 5,900  Level Indianapolis Center
Mon 10:23:59 PM 40.4906 -82.6267 219° Southwest 178 205 5,900  Level Indianapolis Center
Mon 10:24:38 PM 40.4650 -82.6564 222° Southwest 177 204 5,900  Level Indianapolis Center
Mon 10:25:00 PM 40.4522 -82.6675 213° Southwest 177 204 5,900  Level Indianapolis Center
Mon 10:25:39 PM 40.4267 -82.6986 223° Southwest 178 205 5,900  Level Indianapolis Center
Mon 10:26:01 PM 40.4150 -82.7097 216° Southwest 175 201 5,900  Level Indianapolis Center
Mon 10:26:39 PM 40.3886 -82.7383 220° Southwest 178 205 5,900  Level Indianapolis Center
Mon 10:27:02 PM 40.3756 -82.7492 212° Southwest 176 203 5,900  Level Indianapolis Center
Mon 10:27:34 PM 40.3525 -82.7753 221° Southwest 180 207 5,900  Level Indianapolis Center
Mon 10:28:04 PM 40.3347 -82.7917 215° Southwest 182 209 5,900 -98 Level Indianapolis Center
Mon 10:28:35 PM 40.3100 -82.8197 221° Southwest 179 206 5,800 -590 Descending Indianapolis Center
Mon 10:29:05 PM 40.2944 -82.8350 217° Southwest 183 211 5,300 -909 Descending Indianapolis Center
Mon 10:29:41 PM 40.2647 -82.8719 223° Southwest 205 236 4,800 -787 Descending Indianapolis Center
Mon 10:30:06 PM 40.2508 -82.8842 214° Southwest 197 227 4,500 -885 Descending Indianapolis Center
Mon 10:30:42 PM 40.2197 -82.9186 220° Southwest 206 237 3,900 -984 Descending Indianapolis Center
Mon 10:31:07 PM 40.2069 -82.9308 216° Southwest 201 231 3,500 -1,091 Descending Indianapolis Center
Mon 10:31:37 PM 40.1814 -82.9578 219° Southwest 195 224 2,900 -689 Descending Indianapolis Center
Mon 10:32:08 PM 40.1642 -82.9758 219° Southwest 198 228 2,800  Descending Indianapolis Center
Mon 10:32:38 PM 40.1589 -83.0125 259° West 180 207 2,900 98 Climbing Indianapolis Center
Mon 10:33:09 PM 40.1575 -83.0372 266° West 185 213 2,900  Level Indianapolis Center
Mon 10:33:39 PM 40.1622 -83.0539 290° West 161 185 2,900  Level Indianapolis Center
Mon 10:34:10 PM 40.1628 -83.0328 88° East 189 217 2,900  Level Indianapolis Center
Mon 10:36:00 PM 40.0852 -83.0706 201° Southwest  Level Estimated
Mon 10:43:00 PM 40.0798 -83.0732 201° Southwest  Level Estimated
Mon 10:44:00 PM 40.0798 -83.0732 201° Southwest  Level Estimated

Login

Don't have an account? Register now (free) for customized features, flight alerts, and more!